LDPL/PUY METAR and TAF weather

Enter ICAO airport designator
Station Type Date Time Source
LDPL METAR 2018/12/11 17:30 UTC NOAA

LDPL 111730Z 04003KT 020V080 CAVOK 03/M07 Q1018 NOSIG


Station Type Date Time Source
LDPL Decoded METAR 2018/12/11 17:30 UTC NOAA

Pula Aerodrome, Croatia (LDPL) 45-54N 013-55E 63M
Dec 11, 2018 - 12:30 PM EST / 2018.12.11 1730 UTC
Wind: from the NE (040 degrees) at 3 MPH (3 KT) (direction variable):0
Visibility: greater than 7 mile(s):0
Temperature: 37 F (3 C)
Dew Point: 19 F (-7 C)
Relative Humidity: 47%
Pressure (altimeter): 30.06 in. Hg (1018 hPa)
ob: LDPL 111730Z 04003KT 020V080 CAVOK 03/M07 Q1018 NOSIG
cycle: 17

Station Type Date Time Source
LDPL TAF 2018/12/11 18:37 UTC NOAA

TAF LDPL 111733Z 1118/1218 03006KT CAVOK TX12/1212Z TNM02/1203Z


Example: see airport list